createdAt,value
2023-05-17T00:00:25.775Z,87.11
2023-05-17T00:03:28.470Z,86.82
2023-05-17T00:06:31.946Z,86.99
2023-05-17T00:09:34.568Z,86.86
2023-05-17T00:12:37.156Z,87.12
2023-05-17T00:15:41.991Z,87.56
2023-05-17T00:18:44.990Z,87.95
2023-05-17T00:21:47.647Z,87.88
2023-05-17T00:24:50.401Z,87.79
2023-05-17T00:27:54.374Z,87.70
2023-05-17T00:30:56.977Z,87.61
2023-05-17T00:33:59.972Z,87.82
2023-05-17T00:37:02.494Z,87.88
2023-05-17T00:40:06.306Z,88.39
2023-05-17T00:43:12.165Z,88.24
2023-05-17T00:46:16.302Z,88.43
2023-05-17T00:49:19.494Z,89.00
2023-05-17T00:52:22.070Z,89.40
2023-05-17T00:55:24.644Z,89.09
2023-05-17T00:58:27.877Z,89.36
2023-05-17T01:01:30.504Z,89.64
2023-05-17T01:04:33.174Z,90.01
2023-05-17T01:07:35.820Z,89.42
2023-05-17T01:10:54.679Z,89.14
2023-05-17T01:14:37.943Z,88.91
2023-05-17T01:18:05.684Z,88.46
2023-05-17T01:21:29.992Z,88.56
2023-05-17T01:24:32.625Z,88.60
2023-05-17T01:27:36.814Z,88.15
2023-05-17T01:30:40.871Z,88.12
2023-05-17T01:33:45.330Z,88.34
2023-05-17T01:36:47.931Z,88.30
2023-05-17T01:39:50.696Z,88.18
2023-05-17T01:43:38.297Z,87.76
2023-05-17T01:46:45.664Z,87.28
2023-05-17T01:49:54.192Z,86.98
2023-05-17T01:53:35.484Z,87.19
2023-05-17T01:56:43.949Z,86.89
2023-05-17T01:59:49.278Z,87.09
2023-05-17T02:02:51.931Z,87.24
2023-05-17T02:05:56.298Z,87.46
2023-05-17T02:09:01.253Z,87.93
2023-05-17T02:12:04.168Z,88.09
2023-05-17T02:15:09.309Z,88.24
2023-05-17T02:18:14.331Z,88.38
2023-05-17T02:21:18.627Z,88.46
2023-05-17T02:24:21.267Z,88.59
2023-05-17T02:27:24.017Z,88.90
2023-05-17T02:30:26.801Z,88.58
2023-05-17T02:33:30.009Z,88.51
2023-05-17T02:36:32.880Z,88.10
2023-05-17T02:39:36.059Z,87.79
2023-05-17T02:42:38.714Z,88.16
2023-05-17T02:45:41.282Z,88.16
2023-05-17T02:48:43.834Z,88.35
2023-05-17T02:51:46.435Z,88.37
2023-05-17T02:54:51.768Z,89.23
2023-05-17T02:57:54.828Z,88.78
2023-05-17T03:00:58.524Z,88.93
2023-05-17T03:04:01.268Z,88.88
2023-05-17T03:07:07.144Z,89.05
2023-05-17T03:10:11.034Z,89.02
2023-05-17T03:13:18.711Z,88.87
2023-05-17T03:16:21.764Z,89.70
2023-05-17T03:19:28.724Z,89.33
2023-05-17T03:22:32.094Z,88.85
2023-05-17T03:25:35.474Z,89.28
2023-05-17T03:28:40.481Z,89.34
2023-05-17T03:31:43.409Z,88.74
2023-05-17T03:34:46.507Z,88.39
2023-05-17T03:37:49.272Z,88.02
2023-05-17T03:40:53.357Z,87.95
2023-05-17T03:43:56.397Z,87.83
2023-05-17T03:46:59.042Z,87.70
2023-05-17T03:50:02.186Z,88.06
2023-05-17T03:53:07.277Z,88.00
2023-05-17T03:56:10.940Z,87.67
2023-05-17T03:59:14.062Z,87.54
2023-05-17T04:02:16.913Z,87.19
2023-05-17T04:05:20.358Z,86.89
2023-05-17T04:08:24.070Z,86.60
2023-05-17T04:11:27.679Z,86.50
2023-05-17T04:14:31.284Z,86.64
2023-05-17T04:17:35.190Z,86.85
2023-05-17T04:20:39.165Z,86.56
2023-05-17T04:23:41.887Z,86.55
2023-05-17T04:26:44.943Z,86.37
2023-05-17T04:29:47.684Z,86.08
2023-05-17T04:32:50.619Z,85.85
2023-05-17T04:35:56.876Z,85.43
2023-05-17T04:39:01.099Z,85.40
2023-05-17T04:42:05.894Z,85.30
2023-05-17T04:45:15.371Z,84.90
2023-05-17T04:48:23.918Z,84.59
2023-05-17T04:51:27.861Z,84.23
2023-05-17T04:54:32.246Z,83.83
2023-05-17T04:57:35.942Z,83.82
2023-05-17T05:00:40.776Z,83.27
2023-05-17T05:03:45.732Z,83.19
2023-05-17T05:06:49.253Z,82.77
2023-05-17T05:09:52.290Z,82.60
2023-05-17T05:12:58.229Z,81.72
2023-05-17T05:16:01.906Z,81.15
2023-05-17T05:19:05.147Z,81.32
2023-05-17T05:22:08.742Z,80.73
2023-05-17T05:25:13.096Z,80.74
2023-05-17T05:28:15.833Z,80.76
2023-05-17T05:31:19.121Z,80.77
2023-05-17T05:34:28.613Z,80.71
2023-05-17T05:37:31.685Z,80.56
2023-05-17T05:40:35.436Z,80.47
2023-05-17T05:43:38.242Z,80.23
2023-05-17T05:46:41.336Z,80.15
2023-05-17T05:49:46.009Z,80.20
2023-05-17T05:52:49.262Z,79.23
2023-05-17T05:55:52.819Z,79.33
2023-05-17T05:58:57.639Z,78.83
2023-05-17T06:02:01.055Z,78.95
2023-05-17T06:05:05.240Z,78.19
2023-05-17T06:08:08.044Z,78.48
2023-05-17T06:11:10.574Z,78.31
2023-05-17T06:14:13.793Z,78.18
2023-05-17T06:17:17.387Z,78.17
2023-05-17T06:20:20.684Z,78.23
2023-05-17T06:23:24.232Z,78.65
2023-05-17T06:26:27.640Z,78.33
2023-05-17T06:29:31.175Z,78.44
2023-05-17T06:32:34.329Z,78.17
2023-05-17T06:35:51.631Z,77.80
2023-05-17T06:38:58.512Z,78.60
2023-05-17T06:42:01.605Z,78.29
2023-05-17T06:45:08.054Z,78.42
2023-05-17T06:48:10.681Z,78.47
2023-05-17T06:51:14.235Z,78.45
2023-05-17T06:54:17.215Z,78.71
2023-05-17T06:57:19.862Z,78.28
2023-05-17T07:00:23.018Z,78.42
2023-05-17T07:03:25.733Z,78.81
2023-05-17T07:06:28.480Z,78.13
2023-05-17T07:09:31.092Z,78.53
2023-05-17T07:12:35.160Z,78.65
2023-05-17T07:15:39.083Z,78.18
2023-05-17T07:18:43.871Z,77.64
2023-05-17T07:21:47.854Z,77.43
2023-05-17T07:24:51.125Z,77.09
2023-05-17T07:27:53.932Z,77.35
2023-05-17T07:30:58.648Z,77.49
2023-05-17T07:34:01.300Z,77.64
2023-05-17T07:37:04.383Z,77.85
2023-05-17T07:40:07.883Z,77.72
2023-05-17T07:43:10.746Z,77.83
2023-05-17T07:46:13.331Z,77.48
2023-05-17T07:49:17.268Z,77.38
2023-05-17T07:52:19.879Z,78.04
2023-05-17T07:55:23.718Z,78.10
2023-05-17T07:58:26.828Z,77.31
2023-05-17T08:01:29.433Z,76.46
2023-05-17T08:04:32.536Z,76.60
2023-05-17T08:07:35.315Z,76.51
2023-05-17T08:10:38.045Z,76.55
2023-05-17T08:13:40.704Z,76.97
2023-05-17T08:16:47.568Z,77.27
2023-05-17T08:19:53.816Z,78.15
2023-05-17T08:22:56.884Z,78.29
2023-05-17T08:25:59.480Z,78.05
2023-05-17T08:29:02.813Z,77.66
2023-05-17T08:32:05.934Z,77.88
2023-05-17T08:35:08.786Z,77.80
2023-05-17T08:38:11.686Z,77.88
2023-05-17T08:41:14.433Z,78.31
2023-05-17T08:44:17.317Z,77.39
2023-05-17T08:47:29.796Z,77.52
2023-05-17T08:50:34.744Z,77.06
2023-05-17T08:53:39.009Z,76.36
2023-05-17T08:56:43.018Z,75.92
2023-05-17T08:59:47.231Z,76.63
2023-05-17T09:02:50.015Z,76.40
2023-05-17T09:05:53.766Z,75.48
2023-05-17T09:08:58.730Z,75.83
2023-05-17T09:12:04.309Z,75.89
2023-05-17T09:15:15.037Z,75.64
2023-05-17T09:18:19.622Z,75.42
2023-05-17T09:21:24.194Z,74.88
2023-05-17T09:24:31.094Z,73.65
2023-05-17T09:27:33.724Z,73.07
2023-05-17T09:30:39.110Z,70.48
2023-05-17T09:33:46.826Z,68.81
2023-05-17T09:36:49.640Z,66.14
2023-05-17T09:39:53.849Z,65.14
2023-05-17T09:42:56.847Z,65.99
2023-05-17T09:45:59.801Z,66.27
2023-05-17T09:49:04.141Z,66.37
2023-05-17T09:52:08.475Z,65.41
2023-05-17T09:55:15.552Z,64.51
2023-05-17T09:58:19.779Z,63.79
2023-05-17T10:01:26.374Z,63.75
2023-05-17T10:04:32.035Z,63.85
2023-05-17T10:07:35.165Z,63.31
2023-05-17T10:10:39.012Z,60.97
2023-05-17T10:13:49.905Z,59.68
2023-05-17T10:16:54.410Z,57.23
2023-05-17T10:19:59.042Z,57.48
2023-05-17T10:23:03.858Z,57.98
2023-05-17T10:26:07.012Z,57.20
2023-05-17T10:29:10.100Z,58.59
2023-05-17T10:32:14.447Z,57.57
2023-05-17T10:35:18.652Z,57.30
2023-05-17T10:38:24.010Z,55.63
2023-05-17T10:41:33.071Z,56.28
2023-05-17T10:44:37.948Z,58.12
2023-05-17T10:47:42.934Z,58.79
2023-05-17T10:51:00.755Z,60.51
2023-05-17T10:54:33.848Z,62.46
2023-05-17T10:57:50.740Z,63.47
2023-05-17T11:00:55.966Z,64.62
2023-05-17T11:03:59.001Z,65.26
2023-05-17T11:07:26.084Z,64.85
2023-05-17T11:10:28.970Z,64.89
2023-05-17T11:13:31.695Z,63.39
2023-05-17T11:16:38.333Z,60.79
2023-05-17T11:19:57.073Z,56.61
2023-05-17T11:23:02.760Z,53.68
2023-05-17T11:26:22.954Z,51.95
2023-05-17T11:29:30.989Z,47.31
2023-05-17T11:32:34.728Z,47.65
2023-05-17T11:35:39.944Z,48.33
2023-05-17T11:38:43.574Z,49.86
2023-05-17T11:41:54.625Z,50.37
2023-05-17T11:44:58.396Z,51.63
2023-05-17T11:48:02.480Z,52.75
2023-05-17T11:51:05.115Z,52.37
2023-05-17T11:54:08.492Z,50.73
2023-05-17T11:57:13.321Z,48.04
2023-05-17T12:00:27.168Z,48.97
2023-05-17T12:03:32.075Z,46.22
2023-05-17T12:06:36.573Z,46.51
2023-05-17T12:09:40.548Z,46.13
2023-05-17T12:12:43.204Z,41.75
2023-05-17T12:15:57.488Z,41.83
2023-05-17T12:19:00.324Z,42.73
2023-05-17T12:22:14.226Z,42.33
2023-05-17T12:25:22.611Z,43.63
2023-05-17T12:28:25.120Z,44.30
2023-05-17T12:31:40.140Z,44.57
2023-05-17T12:34:42.846Z,43.62
2023-05-17T12:37:46.020Z,43.03
2023-05-17T12:40:48.773Z,43.05
2023-05-17T12:43:53.230Z,43.46
2023-05-17T12:47:03.010Z,43.75
2023-05-17T12:50:06.076Z,44.52
2023-05-17T12:53:09.395Z,46.70
2023-05-17T12:56:21.682Z,46.03
2023-05-17T12:59:29.319Z,44.90
2023-05-17T13:02:33.586Z,43.88
2023-05-17T13:05:36.367Z,43.86
2023-05-17T13:08:39.035Z,44.03
2023-05-17T13:11:51.456Z,37.61
2023-05-17T13:14:55.191Z,31.63
2023-05-17T13:17:58.311Z,29.66
2023-05-17T13:21:01.955Z,27.22
2023-05-17T13:24:04.814Z,27.39
2023-05-17T13:27:08.103Z,25.77
2023-05-17T13:30:11.791Z,27.54
2023-05-17T13:33:14.373Z,26.40
2023-05-17T13:36:17.012Z,26.72
2023-05-17T13:39:21.710Z,26.60
2023-05-17T13:42:25.595Z,26.08
2023-05-17T13:45:29.050Z,25.81
2023-05-17T13:48:31.821Z,25.56
2023-05-17T13:51:35.084Z,25.71
2023-05-17T13:54:38.105Z,27.64
2023-05-17T13:57:40.813Z,29.09
2023-05-17T14:00:44.725Z,28.68
2023-05-17T14:03:47.381Z,28.73
2023-05-17T14:06:54.118Z,29.89
2023-05-17T14:09:57.891Z,35.67
2023-05-17T14:13:00.487Z,39.53
2023-05-17T14:16:03.066Z,41.65
2023-05-17T14:19:05.716Z,43.71
2023-05-17T14:22:09.008Z,44.54
2023-05-17T14:25:11.837Z,44.36
2023-05-17T14:28:15.176Z,45.81
2023-05-17T14:31:17.788Z,46.67
2023-05-17T14:34:20.672Z,47.10
2023-05-17T14:37:23.359Z,47.54
2023-05-17T14:40:26.137Z,47.86
2023-05-17T14:43:29.127Z,48.55
2023-05-17T14:46:31.776Z,48.82
2023-05-17T14:49:34.700Z,50.36
2023-05-17T14:52:37.373Z,51.63
2023-05-17T14:55:40.474Z,52.21
2023-05-17T14:58:43.385Z,50.89
2023-05-17T15:01:46.029Z,49.62
2023-05-17T15:04:48.757Z,49.50
2023-05-17T15:07:52.410Z,49.15
2023-05-17T15:10:56.025Z,49.90
2023-05-17T15:14:00.225Z,50.09
2023-05-17T15:17:04.367Z,50.14
2023-05-17T15:20:08.577Z,49.67
2023-05-17T15:23:12.041Z,50.88
2023-05-17T15:26:14.603Z,51.50
2023-05-17T15:29:18.384Z,53.13
2023-05-17T15:32:21.259Z,53.69
2023-05-17T15:35:24.832Z,53.61
2023-05-17T15:38:27.466Z,54.21
2023-05-17T15:41:31.769Z,55.43
2023-05-17T15:44:34.282Z,55.63
2023-05-17T15:47:43.111Z,55.80
2023-05-17T15:50:48.291Z,56.24
2023-05-17T15:53:52.314Z,56.48
2023-05-17T15:56:54.905Z,57.38
2023-05-17T15:59:58.418Z,57.40
2023-05-17T16:03:01.395Z,57.18
2023-05-17T16:06:05.084Z,58.39
2023-05-17T16:09:08.664Z,59.19
2023-05-17T16:12:11.302Z,60.62
2023-05-17T16:15:13.868Z,60.83
2023-05-17T16:18:16.939Z,61.49
2023-05-17T16:21:20.108Z,61.12
2023-05-17T16:24:23.784Z,61.73
2023-05-17T16:27:26.417Z,62.35
2023-05-17T16:30:29.190Z,62.79
2023-05-17T16:33:32.231Z,62.72
2023-05-17T16:36:35.201Z,63.06
2023-05-17T16:39:37.875Z,63.44
2023-05-17T16:42:40.402Z,63.40
2023-05-17T16:45:44.896Z,63.59
2023-05-17T16:48:47.528Z,64.65
2023-05-17T16:51:52.352Z,65.28
2023-05-17T16:55:01.553Z,67.36
2023-05-17T16:58:05.057Z,66.29
2023-05-17T17:01:08.492Z,66.34
2023-05-17T17:04:12.083Z,65.83
2023-05-17T17:07:15.780Z,66.55
2023-05-17T17:10:20.733Z,66.52
2023-05-17T17:13:23.702Z,67.40
2023-05-17T17:16:26.748Z,66.48
2023-05-17T17:19:29.732Z,66.47
2023-05-17T17:22:34.820Z,66.05
2023-05-17T17:25:37.510Z,66.60
2023-05-17T17:28:40.492Z,67.56
2023-05-17T17:31:43.782Z,67.08
2023-05-17T17:34:46.644Z,67.73
2023-05-17T17:37:50.227Z,67.21
2023-05-17T17:40:54.619Z,67.98
2023-05-17T17:43:58.201Z,68.29
2023-05-17T17:47:01.816Z,68.84
2023-05-17T17:50:06.984Z,69.04
2023-05-17T17:53:10.785Z,69.13
2023-05-17T17:56:14.482Z,69.55
2023-05-17T17:59:17.826Z,69.06
2023-05-17T18:02:21.405Z,71.36
2023-05-17T18:05:26.252Z,69.53
2023-05-17T18:08:30.594Z,68.97
2023-05-17T18:11:34.301Z,69.21
2023-05-17T18:14:38.145Z,69.14
2023-05-17T18:17:41.936Z,68.53
2023-05-17T18:20:45.635Z,68.81
2023-05-17T18:23:49.653Z,68.67
2023-05-17T18:26:53.399Z,68.81
2023-05-17T18:29:56.964Z,68.89
2023-05-17T18:33:02.053Z,69.28
2023-05-17T18:36:06.562Z,68.50
2023-05-17T18:39:10.326Z,69.67
2023-05-17T18:42:14.384Z,68.72
2023-05-17T18:45:18.743Z,68.89
2023-05-17T18:48:25.201Z,68.64
2023-05-17T18:51:33.326Z,68.80
2023-05-17T18:54:37.921Z,68.65
2023-05-17T18:57:44.576Z,68.76
2023-05-17T19:00:51.259Z,68.75
2023-05-17T19:03:56.618Z,68.50
2023-05-17T19:07:00.773Z,68.60
2023-05-17T19:10:05.007Z,68.69
2023-05-17T19:13:08.882Z,68.48
2023-05-17T19:16:12.559Z,68.56
2023-05-17T19:19:16.666Z,68.56
2023-05-17T19:22:22.367Z,68.81
2023-05-17T19:25:40.045Z,68.63
2023-05-17T19:28:49.424Z,68.27
2023-05-17T19:31:58.307Z,67.82
2023-05-17T19:35:08.187Z,67.56
2023-05-17T19:38:14.221Z,67.77
2023-05-17T19:41:19.548Z,67.84
2023-05-17T19:44:35.254Z,68.22
2023-05-17T19:47:42.133Z,68.07
2023-05-17T19:50:47.265Z,68.44
2023-05-17T19:54:11.124Z,68.29
2023-05-17T19:57:18.231Z,67.40
2023-05-17T20:00:22.320Z,67.83
2023-05-17T20:03:27.844Z,68.04
2023-05-17T20:06:32.292Z,67.87
2023-05-17T20:09:36.857Z,68.07
2023-05-17T20:12:41.585Z,68.19
2023-05-17T20:15:45.041Z,68.17
2023-05-17T20:18:48.739Z,67.71
2023-05-17T20:21:54.072Z,68.07
2023-05-17T20:24:58.104Z,67.65
2023-05-17T20:28:01.056Z,67.71
2023-05-17T20:31:03.717Z,67.77
2023-05-17T20:34:06.964Z,67.65
2023-05-17T20:37:11.004Z,67.84
2023-05-17T20:40:14.588Z,67.89
2023-05-17T20:43:17.472Z,67.63
2023-05-17T20:46:20.303Z,67.49
2023-05-17T20:49:23.069Z,67.60
2023-05-17T20:52:37.947Z,67.77
2023-05-17T20:55:41.789Z,67.29
2023-05-17T20:58:44.408Z,67.43
2023-05-17T21:01:47.160Z,67.81
2023-05-17T21:04:49.832Z,67.53
2023-05-17T21:07:52.513Z,67.70
2023-05-17T21:10:55.964Z,67.58
2023-05-17T21:13:59.878Z,67.99
2023-05-17T21:17:03.544Z,68.06
2023-05-17T21:20:06.839Z,67.99
2023-05-17T21:23:10.682Z,67.86
2023-05-17T21:26:13.615Z,67.88
2023-05-17T21:29:16.428Z,67.98
2023-05-17T21:32:19.198Z,68.12
2023-05-17T21:35:22.174Z,68.34
2023-05-17T21:38:25.006Z,68.17
2023-05-17T21:41:27.578Z,68.37
2023-05-17T21:44:31.284Z,68.59
2023-05-17T21:47:36.196Z,68.52
2023-05-17T21:50:38.872Z,68.46
2023-05-17T21:53:44.430Z,68.54
2023-05-17T21:56:47.069Z,68.09
2023-05-17T21:59:51.434Z,68.11
2023-05-17T22:02:54.308Z,68.01
2023-05-17T22:05:56.860Z,68.18
2023-05-17T22:08:59.353Z,69.08
2023-05-17T22:12:01.983Z,69.13
2023-05-17T22:15:04.999Z,69.97
2023-05-17T22:18:07.814Z,69.81
2023-05-17T22:21:14.028Z,69.48
2023-05-17T22:24:16.804Z,69.58
2023-05-17T22:27:20.132Z,69.89
2023-05-17T22:30:22.701Z,70.55
2023-05-17T22:33:25.719Z,70.40
2023-05-17T22:36:28.305Z,70.55
2023-05-17T22:39:30.970Z,70.82
2023-05-17T22:42:33.715Z,70.59
2023-05-17T22:45:36.692Z,70.58
2023-05-17T22:48:40.638Z,70.58
2023-05-17T22:51:43.342Z,71.09
2023-05-17T22:54:46.069Z,71.07
2023-05-17T22:57:48.727Z,71.00
2023-05-17T23:00:51.760Z,71.05
2023-05-17T23:03:54.474Z,70.67
2023-05-17T23:07:02.303Z,70.49
2023-05-17T23:10:06.957Z,70.60
2023-05-17T23:13:09.579Z,70.12
2023-05-17T23:16:14.156Z,70.02
2023-05-17T23:19:21.147Z,70.09
2023-05-17T23:22:23.860Z,70.34
2023-05-17T23:25:29.082Z,70.29
2023-05-17T23:28:33.484Z,70.57
2023-05-17T23:31:36.374Z,70.50
2023-05-17T23:34:38.970Z,70.60
2023-05-17T23:37:42.578Z,71.17
2023-05-17T23:40:45.204Z,71.50
2023-05-17T23:43:48.084Z,71.93
2023-05-17T23:46:54.008Z,72.35
2023-05-17T23:49:56.989Z,72.69
2023-05-17T23:53:03.395Z,73.23
2023-05-17T23:56:06.176Z,74.33
2023-05-17T23:59:09.774Z,74.93
